createdAt,value
2022-09-03T00:00:16.311Z,96182.47
2022-09-03T00:03:06.649Z,96189.09
2022-09-03T00:05:51.672Z,96191.50
2022-09-03T00:08:42.727Z,96190.22
2022-09-03T00:11:23.926Z,96202.50
2022-09-03T00:14:03.176Z,96200.34
2022-09-03T00:16:43.624Z,96198.97
2022-09-03T00:19:13.263Z,96191.50
2022-09-03T00:21:46.207Z,96197.47
2022-09-03T00:24:17.678Z,96192.03
2022-09-03T00:26:51.954Z,96190.09
2022-09-03T00:29:24.314Z,96180.78
2022-09-03T00:31:56.537Z,96189.03
2022-09-03T00:34:30.714Z,96202.66
2022-09-03T00:36:57.326Z,96207.53
2022-09-03T00:39:26.561Z,96206.03
2022-09-03T00:42:40.024Z,96208.56
2022-09-03T00:45:33.783Z,96218.66
2022-09-03T00:48:27.884Z,96214.75
2022-09-03T00:51:17.252Z,96225.69
2022-09-03T00:54:20.408Z,96210.78
2022-09-03T00:57:16.890Z,96208.78
2022-09-03T00:59:51.987Z,96210.41
2022-09-03T01:02:35.194Z,96217.50
2022-09-03T01:05:22.773Z,96214.75
2022-09-03T01:08:04.180Z,96219.09
2022-09-03T01:10:53.051Z,96217.09
2022-09-03T01:13:40.770Z,96206.06
2022-09-03T01:16:25.447Z,96206.50
2022-09-03T01:19:11.759Z,96200.16
2022-09-03T01:22:20.182Z,96198.19
2022-09-03T01:25:15.037Z,96204.09
2022-09-03T01:28:40.599Z,96183.34
2022-09-03T01:31:28.703Z,96174.19
2022-09-03T01:34:01.741Z,96169.44
2022-09-03T01:36:44.544Z,96166.25
2022-09-03T01:39:24.760Z,96159.13
2022-09-03T01:42:20.936Z,96169.34
2022-09-03T01:45:16.291Z,96186.78
2022-09-03T01:47:54.851Z,96186.31
2022-09-03T01:50:50.438Z,96194.06
2022-09-03T01:53:34.742Z,96190.56
2022-09-03T01:56:42.797Z,96183.94
2022-09-03T01:59:18.264Z,96192.34
2022-09-03T02:01:56.864Z,96187.66
2022-09-03T02:04:25.618Z,96188.63
2022-09-03T02:06:53.286Z,96183.66
2022-09-03T02:09:20.791Z,96175.13
2022-09-03T02:11:57.640Z,96170.53
2022-09-03T02:14:26.689Z,96168.13
2022-09-03T02:16:55.136Z,96168.34
2022-09-03T02:19:21.491Z,96174.31
2022-09-03T02:21:53.045Z,96174.31
2022-09-03T02:24:19.619Z,96183.69
2022-09-03T02:26:46.768Z,96187.72
2022-09-03T02:29:15.277Z,96201.56
2022-09-03T02:31:41.686Z,96190.25
2022-09-03T02:34:08.059Z,96190.53
2022-09-03T02:36:37.779Z,96198.84
2022-09-03T02:39:05.023Z,96204.81
2022-09-03T02:41:32.368Z,96203.00
2022-09-03T02:44:09.520Z,96200.16
2022-09-03T02:46:39.697Z,96207.22
2022-09-03T02:49:06.895Z,96205.75
2022-09-03T02:51:38.807Z,96223.50
2022-09-03T02:54:05.839Z,96215.16
2022-09-03T02:56:32.464Z,96223.69
2022-09-03T02:58:58.935Z,96223.69
2022-09-03T03:01:25.359Z,96235.03
2022-09-03T03:03:52.531Z,96233.47
2022-09-03T03:06:22.538Z,96226.19
2022-09-03T03:08:49.997Z,96242.78
2022-09-03T03:11:18.278Z,96251.28
2022-09-03T03:13:48.005Z,96255.22
2022-09-03T03:16:17.187Z,96258.31
2022-09-03T03:18:46.292Z,96250.63
2022-09-03T03:21:15.121Z,96250.34
2022-09-03T03:23:42.206Z,96254.03
2022-09-03T03:26:11.236Z,96249.84
2022-09-03T03:28:37.773Z,96258.13
2022-09-03T03:31:08.461Z,96257.25
2022-09-03T03:33:35.521Z,96269.34
2022-09-03T03:36:10.600Z,96262.63
2022-09-03T03:38:37.496Z,96267.66
2022-09-03T03:41:11.262Z,96260.97
2022-09-03T03:43:37.876Z,96258.72
2022-09-03T03:46:05.294Z,96257.91
2022-09-03T03:48:32.957Z,96262.00
2022-09-03T03:51:04.832Z,96256.69
2022-09-03T03:53:31.610Z,96257.91
2022-09-03T03:56:00.130Z,96262.78
2022-09-03T03:58:26.829Z,96267.19
2022-09-03T04:00:53.565Z,96272.84
2022-09-03T04:03:20.278Z,96271.00
2022-09-03T04:06:00.627Z,96273.97
2022-09-03T04:08:27.645Z,96273.31
2022-09-03T04:10:54.571Z,96271.50
2022-09-03T04:13:20.936Z,96265.81
2022-09-03T04:15:47.298Z,96265.19
2022-09-03T04:18:13.690Z,96256.78
2022-09-03T04:20:40.074Z,96261.34
2022-09-03T04:23:06.494Z,96244.38
2022-09-03T04:25:33.504Z,96246.81
2022-09-03T04:28:00.279Z,96247.16
2022-09-03T04:30:27.683Z,96248.56
2022-09-03T04:32:54.419Z,96244.34
2022-09-03T04:35:22.150Z,96247.63
2022-09-03T04:37:49.014Z,96235.22
2022-09-03T04:40:15.817Z,96246.25
2022-09-03T04:42:42.355Z,96241.16
2022-09-03T04:45:09.469Z,96239.41
2022-09-03T04:47:38.451Z,96242.72
2022-09-03T04:50:06.584Z,96251.69
2022-09-03T04:52:33.231Z,96243.81
2022-09-03T04:54:59.569Z,96251.31
2022-09-03T04:57:26.584Z,96249.03
2022-09-03T04:59:52.971Z,96240.16
2022-09-03T05:02:21.080Z,96251.28
2022-09-03T05:04:47.698Z,96256.59
2022-09-03T05:07:14.180Z,96253.22
2022-09-03T05:09:40.525Z,96257.06
2022-09-03T05:12:07.103Z,96258.06
2022-09-03T05:14:33.502Z,96256.84
2022-09-03T05:17:00.073Z,96255.22
2022-09-03T05:19:26.672Z,96258.25
2022-09-03T05:21:53.016Z,96259.88
2022-09-03T05:24:19.345Z,96264.09
2022-09-03T05:26:45.740Z,96260.34
2022-09-03T05:29:12.138Z,96264.09
2022-09-03T05:31:39.170Z,96275.78
2022-09-03T05:34:06.703Z,96268.38
2022-09-03T05:36:36.640Z,96276.06
2022-09-03T05:39:04.158Z,96275.69
2022-09-03T05:41:31.264Z,96274.31
2022-09-03T05:44:00.732Z,96272.84
2022-09-03T05:46:32.580Z,96259.16
2022-09-03T05:49:01.925Z,96258.97
2022-09-03T05:51:29.625Z,96264.81
2022-09-03T05:53:56.318Z,96259.94
2022-09-03T05:56:25.563Z,96253.03
2022-09-03T05:58:54.123Z,96250.88
2022-09-03T06:01:22.780Z,96245.31
2022-09-03T06:03:58.530Z,96241.78
2022-09-03T06:06:27.042Z,96231.88
2022-09-03T06:08:58.668Z,96231.41
2022-09-03T06:11:29.403Z,96233.31
2022-09-03T06:14:01.321Z,96216.59
2022-09-03T06:16:31.787Z,96210.88
2022-09-03T06:18:59.703Z,96215.41
2022-09-03T06:21:26.261Z,96211.75
2022-09-03T06:23:59.840Z,96207.25
2022-09-03T06:26:28.477Z,96209.69
2022-09-03T06:28:55.027Z,96197.97
2022-09-03T06:31:22.597Z,96200.03
2022-09-03T06:33:49.581Z,96203.91
2022-09-03T06:36:18.390Z,96203.56
2022-09-03T06:38:46.364Z,96221.38
2022-09-03T06:41:21.296Z,96227.72
2022-09-03T06:43:49.044Z,96215.28
2022-09-03T06:46:17.748Z,96223.44
2022-09-03T06:48:45.575Z,96216.28
2022-09-03T06:51:23.605Z,96209.53
2022-09-03T06:53:59.391Z,96199.91
2022-09-03T06:56:28.778Z,96206.63
2022-09-03T06:58:57.759Z,96204.94
2022-09-03T07:01:32.986Z,96217.84
2022-09-03T07:04:04.643Z,96213.63
2022-09-03T07:06:37.057Z,96204.09
2022-09-03T07:09:03.603Z,96201.31
2022-09-03T07:11:33.267Z,96196.81
2022-09-03T07:14:00.193Z,96193.16
2022-09-03T07:16:29.616Z,96196.06
2022-09-03T07:18:57.201Z,96193.41
2022-09-03T07:21:26.082Z,96179.72
2022-09-03T07:23:54.062Z,96192.81
2022-09-03T07:26:30.169Z,96178.03
2022-09-03T07:28:57.572Z,96189.97
2022-09-03T07:31:26.699Z,96195.31
2022-09-03T07:34:05.958Z,96196.19
2022-09-03T07:36:46.792Z,96205.75
2022-09-03T07:39:15.760Z,96209.94
2022-09-03T07:41:44.021Z,96216.91
2022-09-03T07:44:10.930Z,96217.78
2022-09-03T07:46:38.399Z,96223.78
2022-09-03T07:49:06.153Z,96222.13
2022-09-03T07:51:35.967Z,96218.41
2022-09-03T07:54:06.965Z,96215.34
2022-09-03T07:56:35.205Z,96208.56
2022-09-03T07:59:03.063Z,96213.28
2022-09-03T08:01:31.601Z,96199.38
2022-09-03T08:03:58.313Z,96208.41
2022-09-03T08:06:27.164Z,96215.16
2022-09-03T08:09:04.652Z,96224.59
2022-09-03T08:11:35.191Z,96218.66
2022-09-03T08:14:06.285Z,96217.09
2022-09-03T08:16:38.241Z,96224.44
2022-09-03T08:19:05.295Z,96217.03
2022-09-03T08:21:31.923Z,96217.16
2022-09-03T08:24:02.599Z,96215.34
2022-09-03T08:26:35.573Z,96216.38
2022-09-03T08:29:02.703Z,96219.28
2022-09-03T08:31:29.718Z,96217.50
2022-09-03T08:33:58.533Z,96223.25
2022-09-03T08:36:32.174Z,96225.28
2022-09-03T08:39:04.217Z,96224.88
2022-09-03T08:42:08.215Z,96225.69
2022-09-03T08:44:41.570Z,96238.81
2022-09-03T08:47:40.327Z,96243.53
2022-09-03T08:50:19.472Z,96239.25
2022-09-03T08:53:18.486Z,96244.75
2022-09-03T08:55:56.317Z,96248.47
2022-09-03T08:58:26.241Z,96246.59
2022-09-03T09:01:24.685Z,96247.41
2022-09-03T09:04:28.834Z,96255.59
2022-09-03T09:07:13.686Z,96256.84
2022-09-03T09:10:05.152Z,96258.09
2022-09-03T09:13:02.377Z,96265.69
2022-09-03T09:15:53.670Z,96271.59
2022-09-03T09:18:46.281Z,96288.16
2022-09-03T09:21:22.708Z,96301.41
2022-09-03T09:23:51.903Z,96292.75
2022-09-03T09:26:21.503Z,96296.06
2022-09-03T09:28:57.171Z,96303.78
2022-09-03T09:31:23.952Z,96309.13
2022-09-03T09:33:53.335Z,96310.50
2022-09-03T09:36:21.827Z,96326.28
2022-09-03T09:38:48.885Z,96331.59
2022-09-03T09:41:20.460Z,96333.63
2022-09-03T09:43:48.142Z,96342.63
2022-09-03T09:46:20.362Z,96337.69
2022-09-03T09:48:55.465Z,96346.13
2022-09-03T09:51:23.893Z,96346.81
2022-09-03T09:54:14.172Z,96356.63
2022-09-03T09:56:44.492Z,96362.72
2022-09-03T09:59:12.747Z,96371.06
2022-09-03T10:01:41.296Z,96379.66
2022-09-03T10:04:24.288Z,96379.63
2022-09-03T10:07:04.930Z,96394.22
2022-09-03T10:09:33.359Z,96407.88
2022-09-03T10:12:24.575Z,96407.41
2022-09-03T10:15:24.540Z,96397.13
2022-09-03T10:17:59.997Z,96394.31
2022-09-03T10:20:37.275Z,96391.09
2022-09-03T10:23:21.990Z,96396.13
2022-09-03T10:26:16.638Z,96384.22
2022-09-03T10:28:47.637Z,96380.72
2022-09-03T10:31:42.883Z,96384.22
2022-09-03T10:34:40.812Z,96373.66
2022-09-03T10:37:19.659Z,96371.53
2022-09-03T10:40:06.343Z,96370.38
2022-09-03T10:42:45.657Z,96368.44
2022-09-03T10:45:46.105Z,96356.97
2022-09-03T10:48:15.112Z,96355.25
2022-09-03T10:50:50.956Z,96348.03
2022-09-03T10:53:46.579Z,96344.56
2022-09-03T10:56:57.361Z,96341.38
2022-09-03T10:59:35.541Z,96353.13
2022-09-03T11:02:04.866Z,96357.88
2022-09-03T11:04:39.873Z,96356.78
2022-09-03T11:07:12.186Z,96372.06
2022-09-03T11:09:57.259Z,96376.25
2022-09-03T11:12:35.157Z,96366.88
2022-09-03T11:23:22.467Z,96365.22
2022-09-03T11:25:55.125Z,96364.25
2022-09-03T11:29:11.232Z,96362.59
2022-09-03T11:40:10.064Z,96323.34
2022-09-03T11:42:40.942Z,96324.44
2022-09-03T11:45:32.002Z,96315.25
2022-09-03T11:47:59.160Z,96319.13
2022-09-03T11:50:57.296Z,96331.84
2022-09-03T11:54:06.004Z,96331.41
2022-09-03T11:56:34.688Z,96329.56
2022-09-03T11:59:13.686Z,96332.25
2022-09-03T12:11:17.974Z,96333.25
2022-09-03T12:13:48.811Z,96324.34
2022-09-03T12:17:02.191Z,96330.47
2022-09-03T12:19:51.888Z,96330.72
2022-09-03T12:22:23.262Z,96333.28
2022-09-03T12:27:46.579Z,96334.88
2022-09-03T12:30:22.746Z,96331.19
2022-09-03T12:32:49.491Z,96329.59
2022-09-03T12:38:18.340Z,96339.78
2022-09-03T12:43:38.996Z,96334.53
2022-09-03T12:46:13.897Z,96343.19
2022-09-03T12:49:30.048Z,96339.78
2022-09-03T12:51:52.239Z,96337.25
2022-09-03T12:54:19.780Z,96344.06
2022-09-03T12:56:56.189Z,96332.28
2022-09-03T12:59:25.952Z,96330.06
2022-09-03T13:01:58.692Z,96338.09
2022-09-03T13:04:30.053Z,96332.94
2022-09-03T13:07:03.697Z,96332.38
2022-09-03T13:09:33.545Z,96324.75
2022-09-03T13:12:01.103Z,96324.53
2022-09-03T13:14:27.744Z,96316.34
2022-09-03T13:17:08.391Z,96313.44
2022-09-03T13:19:43.748Z,96317.56
2022-09-03T13:22:16.215Z,96321.25
2022-09-03T13:25:05.555Z,96316.56
2022-09-03T13:27:53.871Z,96305.69
2022-09-03T13:30:23.146Z,96312.53
2022-09-03T15:02:40.360Z,96237.53
2022-09-03T15:19:57.473Z,96252.09
2022-09-03T15:33:10.815Z,96237.63
2022-09-03T15:35:59.696Z,96240.50
2022-09-03T15:38:41.337Z,96240.09
2022-09-03T15:41:31.497Z,96235.97
2022-09-03T15:44:01.243Z,96239.91
2022-09-03T15:46:35.143Z,96240.94
2022-09-03T15:49:08.863Z,96248.09
2022-09-03T15:51:56.712Z,96251.22
2022-09-03T16:28:56.150Z,96257.94
2022-09-03T16:32:15.745Z,96253.38
2022-09-03T16:35:02.809Z,96261.69
2022-09-03T16:38:23.454Z,96267.91
2022-09-03T16:41:23.729Z,96262.34
2022-09-03T16:44:10.227Z,96264.56
2022-09-03T16:47:08.134Z,96265.03
2022-09-03T16:50:02.629Z,96269.22
2022-09-03T16:55:39.838Z,96275.06
2022-09-03T16:58:17.729Z,96279.03
2022-09-03T17:01:25.513Z,96279.34
2022-09-03T17:05:00.009Z,96278.31
2022-09-03T17:07:59.395Z,96271.81
2022-09-03T17:10:44.621Z,96272.94
2022-09-03T17:13:46.806Z,96276.75
2022-09-03T17:16:41.276Z,96269.00
2022-09-03T17:19:31.365Z,96283.47
2022-09-03T17:22:25.530Z,96270.28
2022-09-03T17:25:10.938Z,96275.88
2022-09-03T17:28:25.198Z,96268.34
2022-09-03T17:30:58.810Z,96278.72
2022-09-03T17:33:46.883Z,96277.03
2022-09-03T17:36:22.343Z,96278.88
2022-09-03T17:38:54.890Z,96282.41
2022-09-03T17:41:34.302Z,96277.31
2022-09-03T17:44:36.173Z,96281.03
2022-09-03T17:47:05.498Z,96281.22
2022-09-03T17:49:42.547Z,96295.28
2022-09-03T17:52:49.597Z,96289.13
2022-09-03T17:55:44.661Z,96279.81
2022-09-03T17:58:37.167Z,96282.16
2022-09-03T18:01:15.632Z,96288.56
2022-09-03T18:04:37.279Z,96293.34
2022-09-03T18:07:29.522Z,96293.94
2022-09-03T18:10:06.502Z,96296.31
2022-09-03T18:13:03.561Z,96296.91
2022-09-03T18:15:52.468Z,96296.59
2022-09-03T18:18:27.435Z,96299.66
2022-09-03T18:21:24.387Z,96310.09
2022-09-03T18:24:38.312Z,96315.28
2022-09-03T18:27:37.007Z,96317.94
2022-09-03T18:30:28.084Z,96327.63
2022-09-03T18:33:13.406Z,96330.34
2022-09-03T18:35:58.225Z,96326.41
2022-09-03T18:38:46.579Z,96333.03
2022-09-03T18:41:50.034Z,96329.78
2022-09-03T18:45:11.945Z,96327.81
2022-09-03T18:48:20.188Z,96326.50
2022-09-03T18:51:17.723Z,96328.34
2022-09-03T18:54:26.474Z,96344.44
2022-09-03T18:57:12.217Z,96344.88
2022-09-03T19:00:10.365Z,96354.09
2022-09-03T19:03:35.966Z,96353.28
2022-09-03T19:10:17.098Z,96356.19
2022-09-03T19:14:00.248Z,96355.66
2022-09-03T19:16:51.427Z,96359.81
2022-09-03T19:20:09.012Z,96365.94
2022-09-03T19:22:59.037Z,96365.28
2022-09-03T19:25:46.986Z,96374.94
2022-09-03T19:32:11.427Z,96382.03
2022-09-03T19:42:36.748Z,96392.28
2022-09-03T19:45:44.002Z,96399.09
2022-09-03T19:48:57.825Z,96394.00
2022-09-03T19:51:51.191Z,96395.25
2022-09-03T19:54:41.352Z,96402.69
2022-09-03T19:57:30.896Z,96416.72
2022-09-03T20:00:17.693Z,96408.94
2022-09-03T20:03:15.037Z,96416.63
2022-09-03T20:06:00.528Z,96424.31
2022-09-03T20:08:45.782Z,96432.09
2022-09-03T20:11:19.460Z,96429.47
2022-09-03T20:14:04.707Z,96426.34
2022-09-03T20:17:29.122Z,96428.41
2022-09-03T20:20:52.247Z,96430.47
2022-09-03T20:23:41.606Z,96434.56
2022-09-03T20:26:46.012Z,96432.09
2022-09-03T20:29:44.442Z,96432.72
2022-09-03T20:32:32.492Z,96437.44
2022-09-03T20:35:15.712Z,96441.13
2022-09-03T20:37:56.026Z,96433.53
2022-09-03T20:40:28.682Z,96436.00
2022-09-03T20:43:25.977Z,96433.75
2022-09-03T20:46:29.214Z,96436.81
2022-09-03T20:49:37.779Z,96441.34
2022-09-03T20:52:13.715Z,96446.06
2022-09-03T20:54:56.991Z,96446.28
2022-09-03T20:58:00.847Z,96446.47
2022-09-03T21:00:30.895Z,96453.06
2022-09-03T21:03:19.807Z,96451.19
2022-09-03T21:06:06.727Z,96448.53
2022-09-03T21:08:46.130Z,96445.66
2022-09-03T21:11:21.261Z,96449.53
2022-09-03T21:13:59.864Z,96456.75
2022-09-03T21:16:44.563Z,96453.47
2022-09-03T21:19:29.653Z,96460.03
2022-09-03T21:22:04.993Z,96469.44
2022-09-03T21:24:37.501Z,96460.03
2022-09-03T21:27:13.107Z,96470.88
2022-09-03T21:29:56.078Z,96457.13
2022-09-03T21:32:33.890Z,96457.13
2022-09-03T21:35:08.400Z,96459.59
2022-09-03T21:37:37.515Z,96461.25
2022-09-03T21:40:08.027Z,96463.72
2022-09-03T21:42:53.447Z,96461.47
2022-09-03T21:45:40.246Z,96463.91
2022-09-03T21:48:12.584Z,96469.88
2022-09-03T21:50:56.089Z,96474.34
2022-09-03T21:53:47.058Z,96477.03
2022-09-03T21:56:43.561Z,96475.56
2022-09-03T21:59:12.625Z,96481.56
2022-09-03T22:02:10.565Z,96485.63
2022-09-03T22:04:39.938Z,96474.34
2022-09-03T22:07:42.911Z,96490.25
2022-09-03T22:10:29.818Z,96483.75
2022-09-03T22:13:14.582Z,96487.88
2022-09-03T22:15:51.486Z,96489.91
2022-09-03T22:18:28.795Z,96491.88
2022-09-03T22:21:19.676Z,96496.19
2022-09-03T22:24:07.410Z,96502.13
2022-09-03T22:26:49.349Z,96495.75
2022-09-03T22:29:44.306Z,96496.72
2022-09-03T22:32:51.630Z,96500.00
2022-09-03T22:35:43.981Z,96498.75
2022-09-03T22:38:49.385Z,96503.53
2022-09-03T22:41:40.626Z,96498.38
2022-09-03T22:44:35.716Z,96500.81
2022-09-03T22:47:15.837Z,96492.22
2022-09-03T22:49:48.755Z,96506.16
2022-09-03T22:52:42.931Z,96503.03
2022-09-03T22:55:09.470Z,96497.72
2022-09-03T22:58:01.546Z,96504.06
2022-09-03T23:00:30.703Z,96501.53
2022-09-03T23:03:07.579Z,96500.31
2022-09-03T23:05:48.500Z,96502.38
2022-09-03T23:08:43.237Z,96513.97
2022-09-03T23:11:23.077Z,96510.13
2022-09-03T23:13:57.971Z,96509.06
2022-09-03T23:16:33.641Z,96514.13
2022-09-03T23:19:15.227Z,96515.69
2022-09-03T23:21:53.349Z,96509.44
2022-09-03T23:24:33.728Z,96503.38
2022-09-03T23:27:06.405Z,96510.84
2022-09-03T23:29:43.626Z,96510.47
2022-09-03T23:32:10.213Z,96505.31
2022-09-03T23:34:39.963Z,96510.72
2022-09-03T23:37:44.119Z,96517.13
2022-09-03T23:40:41.475Z,96520.59
2022-09-03T23:43:19.762Z,96523.47
2022-09-03T23:46:08.033Z,96525.69
2022-09-03T23:48:54.667Z,96525.53
2022-09-03T23:51:49.719Z,96524.66
2022-09-03T23:54:25.165Z,96526.28
2022-09-03T23:57:17.964Z,96529.81
